Time;durP1;ratioP1;P1;durP2;ratioP2;P2;SDS_P1;SDS_P2;PMS_P1;PMS_P2;Temp;Humidity;BMP_temperature;BMP_pressure;BME280_temperature;BME280_humidity;BME280_pressure;Samples;Min_cycle;Max_cycle;Signal;HPM_P1;HPM_P2
2023/10/29 00:01:49;;;;;;;1.23;0.85;;;;;;;13.64;73.89;99096.66;5113593;28;20257;-64
2023/10/29 00:04:17;;;;;;;3.60;0.80;;;;;;;13.65;73.96;99095.56;5113894;28;20173;-63
2023/10/29 00:06:45;;;;;;;2.25;0.90;;;;;;;13.65;73.99;99084.78;5119983;28;20044;-63
2023/10/29 00:09:13;;;;;;;1.50;1.20;;;;;;;13.66;73.90;99076.38;5118533;28;20052;-63
2023/10/29 00:11:41;;;;;;;3.33;1.17;;;;;;;13.65;73.89;99080.19;5124059;28;20039;-64
2023/10/29 00:14:10;;;;;;;1.80;1.02;;;;;;;13.66;73.87;99060.19;5122062;28;20047;-63
2023/10/29 00:16:38;;;;;;;1.67;0.70;;;;;;;13.66;74.05;99049.41;5122009;27;20085;-64
2023/10/29 00:19:05;;;;;;;2.67;0.95;;;;;;;13.66;73.84;99057.50;5116504;28;20061;-64
2023/10/29 00:21:34;;;;;;;1.13;1.00;;;;;;;13.67;73.68;99044.81;5113571;28;20101;-64
2023/10/29 00:24:02;;;;;;;2.35;1.02;;;;;;;13.66;73.75;99019.69;5112468;28;20058;-63
2023/10/29 00:26:30;;;;;;;1.55;0.80;;;;;;;13.66;73.83;99000.81;5115753;28;20262;-64
2023/10/29 00:28:58;;;;;;;1.55;0.90;;;;;;;13.67;73.64;98986.22;5117018;28;20090;-63
2023/10/29 00:31:27;;;;;;;2.13;0.88;;;;;;;13.68;74.12;98982.44;5121193;28;20059;-64
2023/10/29 00:33:55;;;;;;;1.08;0.65;;;;;;;13.68;73.76;98977.03;5120949;28;20039;-63
2023/10/29 00:36:23;;;;;;;1.42;0.70;;;;;;;13.68;74.07;98968.94;5120758;28;20512;-63
2023/10/29 00:38:51;;;;;;;2.95;0.95;;;;;;;13.75;73.53;98971.28;5114849;28;20119;-64
2023/10/29 00:41:19;;;;;;;2.53;1.20;;;;;;;13.72;73.96;98977.25;5120372;28;20051;-64
2023/10/29 00:43:46;;;;;;;3.58;0.77;;;;;;;13.72;73.64;98974.56;5114059;28;20350;-64
2023/10/29 00:46:16;;;;;;;1.17;0.80;;;;;;;13.70;73.90;98994.84;5112726;28;20052;-64
2023/10/29 00:48:46;;;;;;;1.60;1.05;;;;;;;13.71;74.07;99002.63;5119319;28;20044;-63
2023/10/29 00:51:13;;;;;;;1.67;0.65;;;;;;;13.72;74.03;98989.94;5111320;28;20051;-63
2023/10/29 00:53:42;;;;;;;3.65;1.00;;;;;;;13.72;73.63;99000.75;5115973;28;20040;-64
2023/10/29 00:56:12;;;;;;;1.90;0.85;;;;;;;13.77;73.70;99009.59;5120328;28;20331;-64
2023/10/29 00:58:41;;;;;;;3.72;1.30;;;;;;;13.74;73.60;98991.28;5117458;28;20115;-64
2023/10/29 01:01:09;;;;;;;0.93;0.80;;;;;;;13.73;73.78;98995.06;5117727;28;20056;-64
2023/10/29 01:03:37;;;;;;;0.75;0.75;;;;;;;13.75;73.82;98997.47;5119002;28;20059;-63
2023/10/29 01:06:08;;;;;;;1.38;0.80;;;;;;;13.74;73.75;98993.97;5107345;28;20128;-63
2023/10/29 01:08:36;;;;;;;1.85;0.93;;;;;;;13.75;73.50;98986.66;5116996;28;20127;-64
2023/10/29 01:11:07;;;;;;;1.33;0.82;;;;;;;13.73;74.04;98986.16;5116797;28;20071;-64
2023/10/29 01:13:34;;;;;;;3.65;0.80;;;;;;;13.73;73.97;98988.84;5117018;28;20462;-64
2023/10/29 01:16:04;;;;;;;1.52;0.75;;;;;;;13.72;74.02;98976.44;5117538;28;20044;-64
2023/10/29 01:18:33;;;;;;;2.05;0.70;;;;;;;13.71;73.90;98972.16;5115736;28;20039;-64
2023/10/29 01:21:01;;;;;;;1.20;0.63;;;;;;;13.72;74.01;98966.44;5115275;28;20054;-64
2023/10/29 01:23:30;;;;;;;4.18;1.08;;;;;;;13.74;74.13;98982.38;5114569;28;20112;-64
2023/10/29 01:25:59;;;;;;;2.03;1.10;;;;;;;13.74;73.83;98979.66;5116558;28;20054;-64
2023/10/29 01:28:27;;;;;;;1.90;0.80;;;;;;;13.72;73.89;98974.56;5115800;28;20455;-64
2023/10/29 01:30:55;;;;;;;2.38;0.85;;;;;;;13.71;74.10;98989.16;5121556;28;20135;-64
2023/10/29 01:33:23;;;;;;;1.73;0.80;;;;;;;13.72;73.70;98968.34;5119843;28;20039;-64
2023/10/29 01:35:51;;;;;;;2.80;0.80;;;;;;;13.71;73.86;98964.84;5116750;28;20199;-64
2023/10/29 01:38:19;;;;;;;2.47;1.67;;;;;;;13.70;74.06;98957.03;5118046;28;20048;-64
2023/10/29 01:40:48;;;;;;;1.25;0.60;;;;;;;13.70;74.14;98952.44;5120086;28;20051;-64
2023/10/29 01:43:16;;;;;;;2.25;1.00;;;;;;;13.67;74.10;98928.72;5110332;28;20054;-64
2023/10/29 01:45:44;;;;;;;6.47;1.10;;;;;;;13.68;74.26;98928.44;5116043;28;20108;-64
2023/10/29 01:48:12;;;;;;;3.45;1.00;;;;;;;13.68;73.91;98931.13;5119935;28;20051;-64
2023/10/29 01:50:40;;;;;;;1.00;0.80;;;;;;;13.68;74.22;98933.03;5120451;28;20073;-64
2023/10/29 01:53:07;;;;;;;1.92;0.70;;;;;;;13.68;73.71;98923.03;5112386;28;20064;-64
2023/10/29 01:55:37;;;;;;;2.10;0.95;;;;;;;13.68;73.67;98924.94;5110196;28;20177;-64
2023/10/29 01:58:06;;;;;;;7.22;0.88;;;;;;;13.66;73.72;98924.41;5119058;28;20096;-64
2023/10/29 02:00:34;;;;;;;2.72;1.00;;;;;;;13.67;73.81;98931.41;5121548;28;20069;-64
2023/10/29 02:03:02;;;;;;;2.25;1.30;;;;;;;13.67;73.95;98931.41;5120974;28;20063;-64
2023/10/29 02:05:30;;;;;;;3.25;1.02;;;;;;;13.68;73.75;98935.72;5124169;28;20069;-64
2023/10/29 02:07:57;;;;;;;2.35;1.23;;;;;;;13.67;73.79;98947.63;5118764;28;20115;-64
2023/10/29 02:10:26;;;;;;;2.13;1.20;;;;;;;13.72;73.90;98954.84;5124827;28;20051;-64
2023/10/29 02:12:54;;;;;;;2.03;0.88;;;;;;;13.68;73.76;98947.34;5125586;28;20052;-64
2023/10/29 02:15:23;;;;;;;3.08;1.05;;;;;;;13.76;73.90;98943.19;5124253;28;20587;-64
2023/10/29 02:17:51;;;;;;;5.35;1.00;;;;;;;13.70;73.60;98948.94;5121719;28;20073;-64
2023/10/29 02:20:19;;;;;;;0.95;0.80;;;;;;;13.69;73.69;98931.94;5119040;28;20048;-64
2023/10/29 02:22:48;;;;;;;1.25;0.55;;;;;;;13.68;73.63;98954.63;5115639;28;20043;-64
2023/10/29 02:25:16;;;;;;;0.70;0.60;;;;;;;13.67;73.73;98953.81;5115820;28;20041;-64
2023/10/29 02:27:43;;;;;;;2.40;0.90;;;;;;;13.67;74.00;98950.31;5122506;28;20120;-64
2023/10/29 02:30:12;;;;;;;4.07;1.20;;;;;;;13.68;73.94;98954.63;5115146;28;20113;-64
2023/10/29 02:32:40;;;;;;;1.67;0.95;;;;;;;13.67;73.55;98945.72;5119420;28;20077;-64
2023/10/29 02:35:08;;;;;;;1.33;0.75;;;;;;;13.87;73.65;98950.03;5123570;28;20210;-63
2023/10/29 02:37:36;;;;;;;2.63;1.10;;;;;;;13.79;73.31;98950.72;5118633;28;20047;-62
2023/10/29 02:40:08;;;;;;;1.77;1.00;;;;;;;13.75;73.54;98956.97;5125555;28;20044;-63
2023/10/29 02:42:36;;;;;;;1.90;0.88;;;;;;;13.73;73.71;98942.97;5120092;28;20047;-63
2023/10/29 02:45:05;;;;;;;2.70;1.10;;;;;;;13.71;73.64;98940.56;5120667;28;20048;-63
2023/10/29 02:47:33;;;;;;;1.75;0.82;;;;;;;13.70;73.54;98946.25;5116658;28;20070;-63
2023/10/29 02:50:01;;;;;;;2.65;0.73;;;;;;;13.76;73.48;98936.97;5115036;28;20125;-63
2023/10/29 02:52:29;;;;;;;4.38;1.00;;;;;;;13.72;73.36;98941.34;5119668;28;20077;-63
2023/10/29 02:54:57;;;;;;;1.05;0.80;;;;;;;13.71;73.51;98951.34;5117649;28;20085;-62
2023/10/29 02:57:26;;;;;;;3.35;1.02;;;;;;;13.73;73.74;98937.56;5118266;28;20044;-63
2023/10/29 02:59:54;;;;;;;2.97;0.85;;;;;;;13.72;73.35;98941.34;5119329;27;20054;-63
2023/10/29 03:02:21;;;;;;;1.08;0.60;;;;;;;13.72;73.28;98942.16;5119181;28;20054;-63
2023/10/29 03:04:49;;;;;;;2.10;1.05;;;;;;;13.78;73.42;98940.19;5116379;28;20047;-63
2023/10/29 03:07:17;;;;;;;0.98;0.60;;;;;;;13.75;73.39;98946.97;5112212;28;20052;-63
2023/10/29 03:09:45;;;;;;;2.35;0.80;;;;;;;13.73;73.22;98934.88;5124189;28;20051;-63
2023/10/29 03:12:13;;;;;;;0.82;0.50;;;;;;;13.73;73.30;98924.88;5122399;28;20166;-63
2023/10/29 03:14:42;;;;;;;1.58;0.52;;;;;;;13.73;73.55;98932.97;5116109;28;20043;-62
2023/10/29 03:17:10;;;;;;;2.65;0.75;;;;;;;13.74;73.30;98947.28;5124530;28;20127;-64
2023/10/29 03:19:37;;;;;;;3.70;0.90;;;;;;;13.74;73.16;98947.28;5122006;28;20039;-62
2023/10/29 03:22:05;;;;;;;1.10;0.60;;;;;;;13.72;73.22;98944.84;5117782;28;20047;-63
2023/10/29 03:24:33;;;;;;;1.38;0.70;;;;;;;13.71;73.44;98940.56;5121095;28;20054;-64
2023/10/29 03:27:01;;;;;;;2.13;0.90;;;;;;;13.71;73.16;98924.34;5121411;28;20097;-64
2023/10/29 03:29:30;;;;;;;1.15;0.80;;;;;;;13.68;73.32;98931.13;5123649;28;20039;-64
2023/10/29 03:32:00;;;;;;;1.02;0.75;;;;;;;13.69;73.84;98950.84;5120952;28;20075;-64
2023/10/29 03:34:28;;;;;;;1.35;0.57;;;;;;;13.68;73.50;98949.22;5109167;28;20044;-64
2023/10/29 03:36:56;;;;;;;1.05;0.60;;;;;;;13.67;73.41;98953.81;5118701;28;20112;-65
2023/10/29 03:39:24;;;;;;;1.00;0.63;;;;;;;13.68;73.49;98949.22;5127639;27;20043;-64
2023/10/29 03:41:52;;;;;;;1.50;0.65;;;;;;;13.67;73.71;98963.81;5122954;28;20054;-64
2023/10/29 03:44:19;;;;;;;1.20;0.93;;;;;;;13.67;73.56;98958.41;5118005;28;20047;-64
2023/10/29 03:46:51;;;;;;;1.58;0.73;;;;;;;13.60;73.37;98961.47;5117565;28;20044;-64
2023/10/29 03:49:20;;;;;;;5.90;0.90;;;;;;;13.66;73.73;98960.31;5119400;28;20401;-64
2023/10/29 03:51:48;;;;;;;0.90;0.70;;;;;;;13.67;73.49;98959.22;5120414;28;20069;-64
2023/10/29 03:54:16;;;;;;;1.48;1.13;;;;;;;13.67;73.64;98959.22;5120282;28;20058;-64
2023/10/29 03:56:44;;;;;;;1.17;0.80;;;;;;;13.65;73.70;98958.72;5118935;28;20115;-64
2023/10/29 03:59:12;;;;;;;1.77;0.80;;;;;;;13.65;73.67;98961.41;5118139;28;20052;-64
2023/10/29 04:01:39;;;;;;;0.52;0.50;;;;;;;13.65;73.67;98969.50;5115339;28;20050;-64
2023/10/29 04:04:08;;;;;;;1.02;0.60;;;;;;;13.66;73.52;98951.41;5114234;28;20056;-63
2023/10/29 04:06:37;;;;;;;1.85;0.70;;;;;;;13.60;73.37;98958.75;5119253;28;20168;-63
2023/10/29 04:09:05;;;;;;;0.95;0.60;;;;;;;13.66;73.76;98959.50;5119876;28;20047;-63
2023/10/29 04:11:33;;;;;;;2.53;0.98;;;;;;;13.67;73.28;98953.00;5115970;28;20047;-64
2023/10/29 04:14:01;;;;;;;0.98;0.70;;;;;;;13.66;73.57;98964.91;5120774;28;20333;-64
2023/10/29 04:16:29;;;;;;;2.15;0.80;;;;;;;13.66;73.47;98973.81;5120319;28;20047;-64
2023/10/29 04:18:57;;;;;;;2.08;1.02;;;;;;;13.66;73.43;98975.72;5121690;28;20051;-64
2023/10/29 04:21:25;;;;;;;2.85;0.73;;;;;;;13.64;73.36;98967.91;5118253;28;20047;-63
2023/10/29 04:23:54;;;;;;;4.05;0.68;;;;;;;13.66;73.16;98978.41;5112393;28;20052;-63
2023/10/29 04:26:22;;;;;;;2.13;0.75;;;;;;;13.65;73.56;98966.81;5121213;28;20078;-63
2023/10/29 04:28:49;;;;;;;1.92;0.70;;;;;;;13.64;73.82;98976.00;5120136;28;20061;-63
2023/10/29 04:31:17;;;;;;;3.10;0.85;;;;;;;13.66;73.71;98986.50;5122903;28;20143;-63
2023/10/29 04:33:48;;;;;;;3.15;0.90;;;;;;;13.65;73.42;98993.00;5122323;28;20111;-63
2023/10/29 04:36:20;;;;;;;3.70;0.60;;;;;;;13.65;73.62;98974.91;5109061;28;20044;-63
2023/10/29 04:38:48;;;;;;;1.63;0.70;;;;;;;13.65;73.69;98985.69;5119539;28;20154;-63
2023/10/29 04:41:18;;;;;;;1.23;0.90;;;;;;;13.66;73.51;98997.31;5120200;28;20069;-63
2023/10/29 04:43:45;;;;;;;2.33;0.90;;;;;;;13.67;73.66;98971.91;5121051;28;20095;-63
2023/10/29 04:46:13;;;;;;;3.17;1.10;;;;;;;13.65;73.25;98977.59;5112859;28;20047;-63
2023/10/29 04:48:42;;;;;;;1.58;0.75;;;;;;;13.66;73.28;98978.41;5109542;28;20058;-63
2023/10/29 04:51:10;;;;;;;3.03;1.02;;;;;;;13.67;73.10;98985.41;5119161;28;20100;-63
2023/10/29 04:53:38;;;;;;;1.67;0.80;;;;;;;13.67;73.39;98986.22;5114572;28;20065;-63
2023/10/29 04:56:06;;;;;;;5.28;0.90;;;;;;;13.70;73.31;98978.63;5117160;28;20047;-64
2023/10/29 04:58:37;;;;;;;2.88;0.98;;;;;;;13.56;73.72;98946.13;5114402;28;20493;-64
2023/10/29 05:01:04;;;;;;;1.17;0.70;;;;;;;13.70;73.45;98982.13;5118254;28;20047;-64
2023/10/29 05:03:32;;;;;;;2.72;0.80;;;;;;;13.71;73.33;98985.63;5118121;28;20051;-63
2023/10/29 05:06:00;;;;;;;3.55;1.05;;;;;;;13.59;73.41;98959.84;5111145;28;20131;-64
2023/10/29 05:08:28;;;;;;;3.28;1.20;;;;;;;13.69;73.73;98975.13;5112081;28;20052;-64
2023/10/29 05:10:56;;;;;;;1.75;0.60;;;;;;;13.68;73.65;98968.94;5121467;28;20043;-63
2023/10/29 05:13:24;;;;;;;2.75;1.17;;;;;;;13.67;73.81;98974.63;5117575;28;20044;-63
2023/10/29 05:15:53;;;;;;;6.15;1.48;;;;;;;13.66;73.62;99013.50;5116785;28;20043;-64
2023/10/29 05:18:21;;;;;;;3.38;0.93;;;;;;;13.66;73.96;99010.78;5113210;28;20108;-64
2023/10/29 05:20:49;;;;;;;5.38;1.00;;;;;;;13.64;74.08;99003.00;5112168;28;20047;-62
2023/10/29 05:23:17;;;;;;;4.10;1.35;;;;;;;13.64;73.69;99003.00;5117270;28;20051;-63
2023/10/29 05:25:44;;;;;;;1.15;1.00;;;;;;;13.78;73.70;98997.69;5115072;28;20728;-63
2023/10/29 05:28:12;;;;;;;1.67;0.85;;;;;;;13.70;73.49;98992.94;5117525;28;20044;-63
2023/10/29 05:30:40;;;;;;;2.13;0.90;;;;;;;13.67;73.53;98975.41;5114677;28;20052;-63
2023/10/29 05:33:09;;;;;;;4.60;1.00;;;;;;;13.64;73.44;98981.38;4755024;28;10001287;-63
2023/10/29 05:35:37;;;;;;;4.55;0.85;;;;;;;13.63;73.98;99004.06;5111264;28;20048;-63
2023/10/29 05:38:05;;;;;;;1.92;0.60;;;;;;;13.62;73.89;99012.47;5108370;28;20047;-63
2023/10/29 05:40:33;;;;;;;4.65;1.00;;;;;;;13.67;73.95;99020.50;5117084;28;20044;-63
2023/10/29 05:43:00;;;;;;;8.30;1.23;;;;;;;13.64;73.92;99048.06;5111655;28;20056;-63
2023/10/29 05:45:29;;;;;;;4.63;1.25;;;;;;;13.63;73.91;99074.25;5110707;28;20534;-63
2023/10/29 05:47:58;;;;;;;11.93;1.20;;;;;;;13.63;74.48;99054.56;5114431;28;20112;-63
2023/10/29 05:50:27;;;;;;;5.25;1.20;;;;;;;13.62;74.07;99042.97;5111856;28;20052;-63
2023/10/29 05:52:55;;;;;;;3.15;0.70;;;;;;;13.62;73.81;99071.84;5108921;28;20059;-62
2023/10/29 05:55:23;;;;;;;3.72;1.10;;;;;;;13.60;73.96;99072.13;5114853;28;20059;-62
2023/10/29 05:57:52;;;;;;;3.55;1.50;;;;;;;13.61;74.08;99076.44;5111284;28;20044;-62
2023/10/29 06:00:20;;;;;;;4.80;1.70;;;;;;;13.60;74.01;99082.94;5116721;28;20040;-62
2023/10/29 06:02:48;;;;;;;3.33;0.77;;;;;;;13.60;74.04;99101.03;5111759;28;20048;-63
2023/10/29 06:05:16;;;;;;;5.03;1.23;;;;;;;13.61;73.98;99099.94;5116377;28;20063;-63
2023/10/29 06:07:45;;;;;;;2.13;1.05;;;;;;;13.61;74.03;99091.84;5111235;28;20105;-63
2023/10/29 06:10:14;;;;;;;5.55;1.40;;;;;;;13.60;74.14;99104.53;5113999;28;20048;-64
2023/10/29 06:12:43;;;;;;;3.35;1.17;;;;;;;13.62;73.93;99106.94;5112030;28;20052;-63
2023/10/29 06:15:11;;;;;;;4.18;0.98;;;;;;;13.57;73.78;99101.59;5113368;28;20051;-63
2023/10/29 06:17:41;;;;;;;7.35;1.80;;;;;;;13.62;73.57;99115.03;5111365;28;20051;-62
2023/10/29 06:20:11;;;;;;;5.25;1.00;;;;;;;13.59;73.63;99119.09;5110634;28;20043;-62
2023/10/29 06:22:39;;;;;;;3.53;0.90;;;;;;;13.60;73.42;99118.03;5111322;28;20130;-62
2023/10/29 06:25:09;;;;;;;4.53;1.20;;;;;;;13.59;73.76;99126.41;5111148;28;20141;-60
2023/10/29 06:27:37;;;;;;;3.42;1.13;;;;;;;13.58;73.51;99122.91;5105233;28;20118;-61
2023/10/29 06:30:06;;;;;;;5.28;1.40;;;;;;;13.59;73.28;99131.81;5118448;28;20039;-60
2023/10/29 06:32:34;;;;;;;7.10;1.38;;;;;;;13.58;73.45;99133.69;5114756;28;20044;-60
2023/10/29 06:35:02;;;;;;;3.22;0.90;;;;;;;13.58;73.45;99122.09;5110862;28;20081;-61
2023/10/29 06:37:30;;;;;;;4.28;1.13;;;;;;;13.59;73.44;99134.50;5109843;28;20047;-61
2023/10/29 06:39:58;;;;;;;3.63;1.23;;;;;;;13.58;73.10;99140.97;5118468;28;20568;-63
2023/10/29 06:42:27;;;;;;;6.18;2.17;;;;;;;13.65;73.56;99152.25;5114956;28;20107;-63
2023/10/29 06:44:55;;;;;;;3.25;1.27;;;;;;;13.71;73.09;99153.81;5118479;28;20052;-65
2023/10/29 06:47:23;;;;;;;4.75;1.70;;;;;;;13.68;73.12;99140.91;5112525;28;20051;-63
2023/10/29 06:49:51;;;;;;;5.07;1.05;;;;;;;13.65;72.54;99141.47;5115418;28;20051;-63
2023/10/29 06:52:19;;;;;;;5.45;1.15;;;;;;;13.64;72.67;99147.94;5117581;28;20080;-63
2023/10/29 06:54:46;;;;;;;6.32;1.02;;;;;;;13.63;72.54;99157.94;5116929;28;20081;-65
2023/10/29 06:57:15;;;;;;;4.88;1.35;;;;;;;13.63;72.93;99162.53;5117803;28;20128;-65
2023/10/29 06:59:44;;;;;;;4.65;1.42;;;;;;;13.64;72.76;99158.75;5119702;28;20439;-64
2023/10/29 07:02:12;;;;;;;8.40;1.33;;;;;;;13.65;72.86;99165.75;5122379;28;20043;-64
2023/10/29 07:04:39;;;;;;;6.60;1.73;;;;;;;13.64;72.65;99169.53;5115211;28;20039;-63
2023/10/29 07:07:07;;;;;;;2.20;1.20;;;;;;;13.64;72.54;99178.44;5116727;28;20049;-63
2023/10/29 07:09:35;;;;;;;6.38;1.55;;;;;;;13.69;72.71;99185.69;5119203;27;20055;-63
2023/10/29 07:12:03;;;;;;;9.00;2.10;;;;;;;13.65;72.26;99198.16;5118304;28;20047;-64
2023/10/29 07:14:32;;;;;;;5.97;1.30;;;;;;;13.77;72.33;99201.28;5120923;28;20067;-63
2023/10/29 07:17:01;;;;;;;5.97;1.27;;;;;;;13.77;72.92;99187.78;5114517;28;20062;-62
2023/10/29 07:19:29;;;;;;;5.20;1.30;;;;;;;13.92;72.73;99197.63;5113326;28;20108;-62
2023/10/29 07:21:57;;;;;;;5.35;1.55;;;;;;;13.76;72.26;99198.88;5112045;28;20611;-62
2023/10/29 07:24:24;;;;;;;9.80;3.28;;;;;;;13.70;72.13;99197.31;5107292;28;20052;-62
2023/10/29 07:26:52;;;;;;;6.53;1.98;;;;;;;13.65;72.32;99203.56;5115290;28;20043;-62
2023/10/29 07:29:20;;;;;;;7.03;1.60;;;;;;;13.62;72.46;99210.31;5118228;28;20047;-62
2023/10/29 07:31:48;;;;;;;7.72;2.53;;;;;;;13.62;72.81;99226.53;5116006;28;20078;-62
2023/10/29 07:34:17;;;;;;;4.45;1.50;;;;;;;13.63;72.37;99230.81;5118419;28;20082;-62
2023/10/29 07:36:45;;;;;;;6.85;1.63;;;;;;;14.09;72.90;99232.31;5120720;28;20040;-60
2023/10/29 07:39:13;;;;;;;6.70;1.73;;;;;;;14.01;71.69;99236.44;5119032;28;20100;-63
2023/10/29 07:41:40;;;;;;;4.60;1.67;;;;;;;13.81;71.67;99234.75;5117270;28;20047;-62
2023/10/29 07:44:08;;;;;;;6.20;1.55;;;;;;;13.80;72.18;99233.13;5116462;28;20052;-61
2023/10/29 07:46:36;;;;;;;9.07;2.15;;;;;;;13.76;71.92;99247.47;5115460;28;20094;-62
2023/10/29 07:49:04;;;;;;;12.40;1.92;;;;;;;13.70;72.51;99256.69;5111474;28;20055;-62
2023/10/29 07:51:33;;;;;;;9.70;2.75;;;;;;;13.66;72.34;99264.56;5113325;28;20475;-62
2023/10/29 07:54:01;;;;;;;5.85;1.40;;;;;;;13.63;72.45;99263.22;5115486;28;20120;-63
2023/10/29 07:56:29;;;;;;;8.35;1.50;;;;;;;13.73;72.31;99262.34;5108451;28;20053;-62
2023/10/29 07:58:56;;;;;;;9.85;1.60;;;;;;;13.66;71.94;99269.97;5116953;28;20067;-62
2023/10/29 08:01:24;;;;;;;7.95;1.65;;;;;;;13.66;71.97;99251.88;5111221;28;20458;-61
2023/10/29 08:03:55;;;;;;;5.10;2.05;;;;;;;13.67;71.99;99269.66;5114653;28;20040;-62
2023/10/29 08:06:23;;;;;;;7.72;1.80;;;;;;;13.65;71.90;99268.34;5112165;28;20052;-62
2023/10/29 08:08:53;;;;;;;12.02;1.75;;;;;;;13.59;71.99;99259.47;5105498;28;20369;-62
2023/10/29 08:11:21;;;;;;;4.82;1.40;;;;;;;13.69;72.14;99280.19;5122438;28;20062;-62
2023/10/29 08:13:50;;;;;;;5.18;1.45;;;;;;;13.79;71.46;99279.31;5119344;28;20123;-62
2023/10/29 08:16:19;;;;;;;9.00;1.90;;;;;;;13.76;71.58;99271.78;5119376;28;20083;-61
2023/10/29 08:18:47;;;;;;;8.20;1.90;;;;;;;13.93;71.88;99283.78;5113035;28;20047;-62
2023/10/29 08:21:17;;;;;;;9.93;2.20;;;;;;;13.91;71.72;99296.75;5111628;28;20521;-62
2023/10/29 08:23:45;;;;;;;6.03;2.00;;;;;;;13.90;71.71;99295.13;5117884;28;20090;-62
2023/10/29 08:26:14;;;;;;;5.03;1.60;;;;;;;13.93;71.63;99296.47;5116370;28;20055;-62
2023/10/29 08:28:42;;;;;;;7.32;1.65;;;;;;;14.00;71.45;99295.06;5117938;28;20043;-62
2023/10/29 08:31:11;;;;;;;7.50;1.95;;;;;;;14.04;71.16;99308.81;5115457;28;20077;-62
2023/10/29 08:33:39;;;;;;;7.60;1.70;;;;;;;13.87;70.65;99284.91;5114484;28;20048;-62
2023/10/29 08:36:07;;;;;;;6.07;1.40;;;;;;;13.79;71.16;99296.31;5114553;28;20044;-62
2023/10/29 08:38:36;;;;;;;6.82;1.75;;;;;;;13.89;71.80;99312.44;5117711;28;20166;-62
2023/10/29 08:41:14;;;;;;;9.13;1.70;;;;;;;13.88;71.97;99304.59;5110946;28;20058;-62
2023/10/29 08:43:42;;;;;;;11.40;2.95;;;;;;;14.09;71.50;99316.88;5110097;28;20047;-62
2023/10/29 08:46:10;;;;;;;7.30;1.50;;;;;;;13.88;70.67;99308.09;5119454;28;20138;-63
2023/10/29 08:48:39;;;;;;;8.32;1.65;;;;;;;13.86;71.35;99310.31;5110111;28;20090;-63
2023/10/29 08:51:08;;;;;;;6.97;1.50;;;;;;;13.89;71.00;99344.84;5115721;28;20048;-63
2023/10/29 08:53:35;;;;;;;6.93;1.70;;;;;;;13.83;70.53;99339.78;5118191;28;20046;-63
2023/10/29 08:56:04;;;;;;;10.50;1.80;;;;;;;14.05;70.75;99353.63;5114908;28;20046;-64
2023/10/29 08:58:33;;;;;;;5.75;1.30;;;;;;;14.14;69.76;99354.66;5116406;28;20084;-64
2023/10/29 09:01:01;;;;;;;8.48;1.50;;;;;;;14.36;69.98;99350.69;5123660;28;20192;-64
2023/10/29 09:03:29;;;;;;;6.15;1.90;;;;;;;14.61;69.66;99355.91;5122250;28;20059;-64
2023/10/29 09:06:03;;;;;;;5.68;1.60;;;;;;;14.47;68.93;99366.59;5123071;28;20096;-63
2023/10/29 09:08:33;;;;;;;6.07;1.55;;;;;;;14.20;69.09;99377.03;5122666;28;20043;-64
2023/10/29 09:11:01;;;;;;;7.47;1.95;;;;;;;14.07;70.05;99372.28;5123183;28;20469;-64
2023/10/29 09:13:30;;;;;;;5.13;1.40;;;;;;;14.41;70.15;99380.41;5122018;28;20407;-63
2023/10/29 09:15:59;;;;;;;8.80;1.60;;;;;;;14.24;69.83;99369.97;5121326;28;20063;-62
2023/10/29 09:18:28;;;;;;;8.98;1.60;;;;;;;14.24;69.66;99373.50;5123226;28;20050;-63
2023/10/29 09:20:56;;;;;;;7.65;1.45;;;;;;;14.24;69.83;99367.28;5119732;28;20047;-63
2023/10/29 09:23:24;;;;;;;8.10;1.90;;;;;;;14.12;70.36;99373.03;5121265;28;20578;-63
2023/10/29 09:25:52;;;;;;;9.90;1.98;;;;;;;14.37;70.25;99379.34;5120975;28;20051;-63
2023/10/29 09:28:20;;;;;;;5.43;1.98;;;;;;;14.12;70.79;99383.84;5124189;28;20043;-63
2023/10/29 09:30:48;;;;;;;7.15;1.50;;;;;;;14.22;71.08;99380.28;5123694;28;20071;-63
2023/10/29 09:33:18;;;;;;;5.22;1.30;;;;;;;14.39;71.28;99371.75;5121749;28;20048;-63
2023/10/29 09:35:45;;;;;;;7.10;2.08;;;;;;;14.34;71.01;99376.13;5119309;28;20051;-65
2023/10/29 09:38:14;;;;;;;8.77;2.00;;;;;;;14.41;70.70;99370.38;5119028;28;20150;-64
2023/10/29 09:40:42;;;;;;;6.47;1.55;;;;;;;14.57;70.09;99366.50;5118442;28;20070;-63
2023/10/29 09:43:14;;;;;;;7.38;1.95;;;;;;;14.36;70.81;99375.84;5114971;28;20130;-63
2023/10/29 09:45:45;;;;;;;7.85;2.53;;;;;;;14.27;69.92;99372.13;5115568;28;20060;-64
2023/10/29 09:48:15;;;;;;;4.15;1.58;;;;;;;14.72;69.50;99373.66;5120763;28;20052;-62
2023/10/29 09:50:45;;;;;;;7.95;2.13;;;;;;;14.53;70.43;99378.16;5109846;28;20063;-64
2023/10/29 09:53:16;;;;;;;5.38;1.98;;;;;;;14.39;70.11;99375.28;5110721;28;20044;-63
2023/10/29 09:55:43;;;;;;;7.70;2.13;;;;;;;14.46;70.21;99375.78;5113889;28;20040;-63
2023/10/29 09:58:11;;;;;;;6.45;2.08;;;;;;;14.44;70.06;99361.75;5118725;28;20155;-65
2023/10/29 10:00:40;;;;;;;7.10;2.00;;;;;;;14.22;69.28;99353.25;5119318;28;20051;-63
2023/10/29 10:03:08;;;;;;;5.70;1.42;;;;;;;14.25;70.38;99356.19;5116466;28;20043;-62
2023/10/29 10:05:36;;;;;;;5.55;1.33;;;;;;;14.14;70.87;99356.56;5116045;28;20040;-63
2023/10/29 10:08:05;;;;;;;4.63;1.40;;;;;;;14.29;71.16;99353.72;5116113;28;20047;-60
2023/10/29 10:10:38;;;;;;;6.80;1.60;;;;;;;14.13;70.99;99373.84;4759570;28;10000405;-63
2023/10/29 10:13:06;;;;;;;8.45;1.60;;;;;;;14.08;70.96;99363.06;5115295;28;20043;-60
2023/10/29 10:15:34;;;;;;;5.18;1.85;;;;;;;14.07;71.33;99358.75;5122108;28;20485;-65
2023/10/29 10:18:04;;;;;;;6.10;1.65;;;;;;;14.19;71.80;99346.50;5112909;28;20051;-63
2023/10/29 10:20:34;;;;;;;8.13;2.08;;;;;;;14.10;71.29;99342.00;5113510;28;20074;-63
2023/10/29 10:23:04;;;;;;;8.57;2.38;;;;;;;14.06;71.45;99357.16;5114131;28;20091;-63
2023/10/29 10:25:35;;;;;;;6.82;1.60;;;;;;;14.02;71.34;99352.31;5119261;28;20170;-63
2023/10/29 10:28:05;;;;;;;5.78;2.22;;;;;;;14.03;71.54;99342.31;5117492;28;20104;-63
2023/10/29 10:30:34;;;;;;;8.13;1.40;;;;;;;14.26;71.07;99341.59;5112442;28;20344;-62
2023/10/29 10:33:10;;;;;;;7.15;1.65;;;;;;;14.30;70.85;99352.63;5119691;28;20055;-63
2023/10/29 10:35:43;;;;;;;5.88;1.52;;;;;;;14.15;71.16;99358.16;5109220;28;20158;-63
2023/10/29 10:38:12;;;;;;;10.27;2.28;;;;;;;14.38;71.44;99357.44;5116027;28;20047;-63
2023/10/29 10:40:42;;;;;;;7.70;1.70;;;;;;;14.28;71.40;99371.03;5119976;28;20301;-63
2023/10/29 10:43:10;;;;;;;8.20;1.60;;;;;;;14.29;71.26;99381.56;5117683;28;20043;-63
2023/10/29 10:45:38;;;;;;;4.30;1.40;;;;;;;14.21;71.32;99397.56;5113199;28;20107;-63
2023/10/29 10:48:08;;;;;;;9.05;2.28;;;;;;;14.15;70.58;99386.00;5116097;28;20174;-63
2023/10/29 10:50:36;;;;;;;7.30;1.70;;;;;;;14.14;71.01;99387.06;5117586;28;20054;-63
2023/10/29 10:53:04;;;;;;;9.18;2.97;;;;;;;14.15;71.26;99388.69;5113048;28;20092;-63
2023/10/29 10:55:34;;;;;;;7.13;1.70;;;;;;;14.17;71.47;99402.72;5108685;28;20047;-63
2023/10/29 10:58:23;;;;;;;6.53;1.88;;;;;;;14.18;71.43;99398.94;5115142;28;20070;-63
2023/10/29 11:00:52;;;;;;;7.15;1.80;;;;;;;14.49;71.92;99401.44;5119052;28;20051;-63
2023/10/29 11:03:21;;;;;;;12.85;2.47;;;;;;;14.47;70.64;99404.44;5117520;28;20047;-63
2023/10/29 11:05:59;;;;;;;7.10;1.70;;;;;;;14.45;70.60;99400.41;5120855;28;20051;-62
2023/10/29 11:08:28;;;;;;;6.03;1.55;;;;;;;14.40;70.97;99386.88;5111305;28;20067;-63
2023/10/29 11:10:57;;;;;;;5.20;1.73;;;;;;;14.57;70.00;99385.41;5117407;28;20095;-64
2023/10/29 11:13:26;;;;;;;10.20;2.00;;;;;;;14.34;70.24;99399.63;5112950;28;20122;-62
2023/10/29 11:15:55;;;;;;;12.23;2.22;;;;;;;14.26;70.16;99389.41;5113934;28;20089;-64
2023/10/29 11:18:28;;;;;;;9.15;2.97;;;;;;;14.18;70.37;99377.31;5115126;28;20059;-66
2023/10/29 11:20:56;;;;;;;11.07;2.88;;;;;;;14.14;70.65;99367.34;5115228;28;20050;-67
2023/10/29 11:23:27;;;;;;;15.65;5.30;;;;;;;14.11;70.76;99354.41;5121953;28;20049;-67
2023/10/29 11:26:23;;;;;;;17.83;6.82;;;;;;;14.31;70.91;99355.06;5119991;28;20047;-64
2023/10/29 11:28:53;;;;;;;14.73;6.43;;;;;;;14.42;70.52;99339.59;5109101;28;20108;-66
2023/10/29 11:31:22;;;;;;;40.80;14.38;;;;;;;14.88;70.31;99331.84;5121751;27;20055;-65
2023/10/29 11:34:23;;;;;;;25.35;8.65;;;;;;;14.84;68.92;99328.09;5121631;28;20106;-65
2023/10/29 11:36:51;;;;;;;21.13;9.88;;;;;;;14.61;69.64;99318.88;5117109;27;20050;-64
2023/10/29 11:39:32;;;;;;;30.20;10.50;;;;;;;14.47;70.03;99333.34;5122335;27;20104;-65